Waskish, MN

11:38 PM CST on December 28, 2014 (GMT -0600)
Waskish Municipal | Change Station
CLOSE
Current Station
Airport
Location: Waskish,
Elevation: 1181 ft
Nearby Weather Stations
Active Advisory: Wind Chill Advisory

Elev 1181 ft 48.15 °N, 94.52 °W | Updated 10 minutes ago

Clear
Clear
-8 °F
Feels Like -22 °F
N
7
Wind Variable Wind from WNW

Today
High -- | Low -- °F
--% Chance of Precip.
Yesterday
High -- | Low -- °F
Precip. -- in
8:08 AM 4:31 PM
First Quarter, 55% visible
Pressure 30.41 in
Visibility 10.0 miles
Clouds Clear
Windchill -22 °F
Dew Point -11 °F
Humidity 84%
Rainfall 0.00 in
Snow Depth Not available.
UV 0 out of 12
Pollen .10 out of 12
Air Quality Not available.
Flu Activity Not available.
METAR KVWU 290528Z AUTO 29006KT 10SM CLR M22/M24 A3041 RMK AO2

More Conditions Fewer Conditions

Pressure 30.41 in
Visibility 10.0 miles
Clouds Clear
Windchill -22 °F
Dew Point -11 °F
Humidity 84%
Rainfall 0.00 in
Snow Depth Not available.
UV 0 out of 12
Pollen .10 out of 12
Air Quality Not available.
Flu Activity Not available.
METAR KVWU 290528Z AUTO 29006KT 10SM CLR M22/M24 A3041 RMK AO2

More Conditions Fewer Conditions

10-Day Weather Forecast

Almanac

Astronomy

Dec. 28, 2014 Rise Set
Actual Time
Civil Twilight
Nautical Twilight
Astronomical Twilight
Moon
Length of Visible Light
Length of Day
Tomorrow will be .
, % of the Moon is Illuminated

Today's Extremes

State Highs State Lows

Community

WunderPhotos

Upload Photos

1,781,542 photos uploaded!

WunderBlogs® & News

Nearby

Air Quality

  Air Quality AQ Index Pollutant
Not available.

Snow Depth

Station Depth Elevation

Earthquake Activity

City Distance Mag. Time & Date
Minimum magnitude displayed is 2.5.

Coastal Water Temperatures

Place Temperature

Nearby Weather Stations